Time;durP1;ratioP1;P1;durP2;ratioP2;P2;SDS_P1;SDS_P2;PMS_P1;PMS_P2;Temp;Humidity;BMP_temperature;BMP_pressure;BME280_temperature;BME280_humidity;BME280_pressure;Samples;Min_cycle;Max_cycle;Signal;HPM_P1;HPM_P2
2021/04/12 00:01:03;;;;;;;;;;;17.50;50.00;;;;;;4743903;29;19926;-77
2021/04/12 00:03:32;;;;;;;;;;;17.50;50.10;;;;;;4754813;29;19936;-81
2021/04/12 00:06:06;;;;;;;;;;;17.50;50.00;;;;;;4748142;29;19933;-77
2021/04/12 00:08:45;;;;;;;;;;;17.50;50.20;;;;;;4764834;29;19926;-76
2021/04/12 00:11:21;;;;;;;;;;;17.50;50.60;;;;;;4751836;30;19975;-76
2021/04/12 00:13:52;;;;;;;;;;;17.50;51.10;;;;;;4759361;29;19932;-80
2021/04/12 00:16:26;;;;;;;;;;;17.40;51.10;;;;;;4769042;29;20867;-78
2021/04/12 00:18:55;;;;;;;;;;;17.50;51.00;;;;;;4761737;29;19926;-78
2021/04/12 00:21:31;;;;;;;;;;;17.40;51.10;;;;;;4767338;29;20373;-78
2021/04/12 00:23:59;;;;;;;;;;;17.50;51.00;;;;;;4753164;29;20466;-78
2021/04/12 00:26:28;;;;;;;;;;;17.40;50.80;;;;;;4762465;29;20407;-77
2021/04/12 00:28:57;;;;;;;;;;;17.40;50.80;;;;;;4771980;29;19930;-84
2021/04/12 00:31:39;;;;;;;;;;;17.50;50.80;;;;;;4769154;29;19932;-84
2021/04/12 00:34:20;;;;;;;;;;;17.50;51.40;;;;;;4770179;29;20367;-83
2021/04/12 00:37:07;;;;;;;;;;;17.50;51.50;;;;;;4770332;29;20545;-82
2021/04/12 00:39:39;;;;;;;;;;;17.60;51.80;;;;;;4748867;29;19980;-83
2021/04/12 00:42:16;;;;;;;;;;;17.70;51.80;;;;;;4763312;29;19926;-82
2021/04/12 00:45:04;;;;;;;;;;;17.80;51.70;;;;;;4767225;29;20008;-81
2021/04/12 00:47:43;;;;;;;;;;;17.80;51.60;;;;;;4752799;29;21927;-82
2021/04/12 00:50:24;;;;;;;;;;;17.80;51.50;;;;;;4761272;29;19987;-82
2021/04/12 00:53:12;;;;;;;;;;;17.90;51.20;;;;;;4761113;29;20142;-82
2021/04/12 00:55:46;;;;;;;;;;;17.90;51.10;;;;;;4761949;29;20051;-82
2021/04/12 00:58:19;;;;;;;;;;;18.00;51.10;;;;;;4757933;29;19941;-82
2021/04/12 01:00:48;;;;;;;;;;;18.00;50.90;;;;;;4772118;29;19942;-82
2021/04/12 01:03:33;;;;;;;;;;;18.00;50.80;;;;;;4762706;29;19933;-82
2021/04/12 01:05:59;;;;;;;;;;;18.10;50.60;;;;;;4753073;29;20329;-82
2021/04/12 01:08:28;;;;;;;;;;;18.10;50.60;;;;;;4757864;29;19926;-82
2021/04/12 01:10:54;;;;;;;;;;;18.10;50.40;;;;;;4764739;29;19933;-83
2021/04/12 01:13:37;;;;;;;;;;;18.10;50.80;;;;;;4764002;29;19926;-82
2021/04/12 01:16:18;;;;;;;;;;;18.20;50.60;;;;;;4753119;29;23230;-80
2021/04/12 01:18:48;;;;;;;;;;;18.20;50.20;;;;;;4757345;29;19932;-78
2021/04/12 01:21:26;;;;;;;;;;;18.20;49.90;;;;;;4762918;29;19933;-79
2021/04/12 01:24:01;;;;;;;;;;;18.30;50.00;;;;;;4748541;29;21476;-79
2021/04/12 01:26:51;;;;;;;;;;;18.30;50.00;;;;;;4768300;30;19930;-79
2021/04/12 01:29:30;;;;;;;;;;;18.30;50.00;;;;;;4748893;29;19926;-81
2021/04/12 01:32:05;;;;;;;;;;;18.30;49.80;;;;;;4759377;29;19933;-80
2021/04/12 01:34:53;;;;;;;;;;;18.30;49.70;;;;;;4765781;29;19945;-80
2021/04/12 01:37:24;;;;;;;;;;;18.30;49.70;;;;;;4767110;30;19926;-82
2021/04/12 01:39:51;;;;;;;;;;;18.40;49.60;;;;;;4768240;29;20331;-83
2021/04/12 01:42:29;;;;;;;;;;;18.40;49.40;;;;;;4768671;29;19956;-82
2021/04/12 01:45:10;;;;;;;;;;;18.40;49.50;;;;;;4763885;29;19926;-81
2021/04/12 01:47:45;;;;;;;;;;;18.50;49.30;;;;;;4750515;29;21638;-81
2021/04/12 01:50:20;;;;;;;;;;;18.50;49.10;;;;;;4771119;29;19926;-81
2021/04/12 01:52:47;;;;;;;;;;;18.50;49.10;;;;;;4771243;29;19933;-80
2021/04/12 01:55:22;;;;;;;;;;;18.50;49.00;;;;;;4763372;29;19934;-81
2021/04/12 01:58:01;;;;;;;;;;;18.50;49.20;;;;;;4770410;29;19932;-83
2021/04/12 02:00:46;;;;;;;;;;;18.50;48.30;;;;;;4762022;29;19926;-83
2021/04/12 02:03:28;;;;;;;;;;;18.30;48.20;;;;;;4755823;30;20409;-84
2021/04/12 02:06:05;;;;;;;;;;;18.30;48.30;;;;;;4780436;29;19925;-83
2021/04/12 02:08:35;;;;;;;;;;;18.30;48.40;;;;;;4765758;29;19945;-84
2021/04/12 02:11:20;;;;;;;;;;;18.20;48.40;;;;;;4768299;29;20833;-83
2021/04/12 02:13:53;;;;;;;;;;;18.10;48.30;;;;;;4755378;29;20791;-84
2021/04/12 02:16:38;;;;;;;;;;;18.10;48.40;;;;;;4763947;29;19933;-84
2021/04/12 02:19:21;;;;;;;;;;;18.00;48.50;;;;;;4761567;29;20471;-85
2021/04/12 02:22:00;;;;;;;;;;;18.00;48.50;;;;;;4770467;29;19926;-82
2021/04/12 02:24:44;;;;;;;;;;;18.00;48.60;;;;;;4765143;29;19983;-84
2021/04/12 02:27:13;;;;;;;;;;;17.90;48.70;;;;;;4762047;29;20925;-84
2021/04/12 02:29:53;;;;;;;;;;;17.90;48.80;;;;;;4758569;29;20008;-84
2021/04/12 02:32:30;;;;;;;;;;;17.80;48.80;;;;;;4746657;29;19925;-84
2021/04/12 02:35:15;;;;;;;;;;;17.80;48.90;;;;;;4750651;29;19925;-83
2021/04/12 02:37:53;;;;;;;;;;;17.80;48.90;;;;;;4721278;29;19926;-83
2021/04/12 02:40:28;;;;;;;;;;;17.80;48.90;;;;;;4744941;29;20431;-83
2021/04/12 02:42:59;;;;;;;;;;;17.80;49.00;;;;;;4767798;29;19994;-83
2021/04/12 02:45:25;;;;;;;;;;;17.70;49.00;;;;;;4756732;29;19932;-83
2021/04/12 02:48:06;;;;;;;;;;;17.70;49.10;;;;;;4771986;29;19937;-82
2021/04/12 02:50:51;;;;;;;;;;;17.70;49.70;;;;;;4765716;29;20779;-83
2021/04/12 02:53:27;;;;;;;;;;;17.60;49.10;;;;;;4755032;29;20632;-83
2021/04/12 02:56:10;;;;;;;;;;;17.60;49.10;;;;;;4752846;30;19933;-83
2021/04/12 02:58:46;;;;;;;;;;;17.60;49.10;;;;;;4760315;29;20435;-83
2021/04/12 03:01:32;;;;;;;;;;;17.60;49.20;;;;;;4758790;29;20017;-82
2021/04/12 03:04:11;;;;;;;;;;;17.60;49.20;;;;;;4756629;29;20006;-83
2021/04/12 03:06:50;;;;;;;;;;;17.50;49.10;;;;;;4761860;29;20555;-82
2021/04/12 03:09:36;;;;;;;;;;;17.50;49.20;;;;;;4763246;29;19936;-83
2021/04/12 03:12:19;;;;;;;;;;;17.50;49.20;;;;;;4767634;29;20540;-84
2021/04/12 03:14:49;;;;;;;;;;;17.50;49.30;;;;;;4752092;29;20840;-84
2021/04/12 03:17:26;;;;;;;;;;;17.40;49.30;;;;;;4766649;29;19921;-83
2021/04/12 03:20:11;;;;;;;;;;;17.40;49.30;;;;;;4766393;29;19937;-83
2021/04/12 03:22:43;;;;;;;;;;;17.40;49.40;;;;;;4757982;29;20429;-84
2021/04/12 03:25:14;;;;;;;;;;;17.40;49.30;;;;;;4761594;30;19933;-83
2021/04/12 03:28:00;;;;;;;;;;;17.40;49.30;;;;;;4759170;29;19926;-83
2021/04/12 03:30:49;;;;;;;;;;;17.40;49.40;;;;;;4756811;29;20290;-84
2021/04/12 03:33:15;;;;;;;;;;;17.30;49.40;;;;;;4780232;29;19929;-84
2021/04/12 03:36:00;;;;;;;;;;;17.40;49.50;;;;;;4767025;29;19933;-84
2021/04/12 03:38:47;;;;;;;;;;;17.30;49.40;;;;;;4758166;29;19926;-84
2021/04/12 03:41:29;;;;;;;;;;;17.30;49.50;;;;;;4751787;29;19926;-83
2021/04/12 03:44:10;;;;;;;;;;;17.30;49.50;;;;;;4760492;29;19944;-84
2021/04/12 03:46:54;;;;;;;;;;;17.30;49.50;;;;;;4757378;30;20533;-84
2021/04/12 03:49:33;;;;;;;;;;;17.20;49.50;;;;;;4762917;29;19952;-82
2021/04/12 03:51:59;;;;;;;;;;;17.20;49.50;;;;;;4765266;30;20344;-83
2021/04/12 03:54:44;;;;;;;;;;;17.20;49.60;;;;;;4766535;29;20318;-83
2021/04/12 03:57:29;;;;;;;;;;;17.20;49.60;;;;;;4743777;29;21171;-83
2021/04/12 04:00:19;;;;;;;;;;;17.20;49.60;;;;;;4761036;29;19934;-83
2021/04/12 04:03:04;;;;;;;;;;;17.20;49.70;;;;;;4768736;30;21443;-83
2021/04/12 04:06:07;;;;;;;;;;;17.10;49.70;;;;;;4768314;29;20003;-83
2021/04/12 04:08:41;;;;;;;;;;;17.10;49.60;;;;;;4787226;29;20191;-83
2021/04/12 04:11:25;;;;;;;;;;;17.10;49.70;;;;;;4777718;29;19956;-83
2021/04/12 04:14:06;;;;;;;;;;;17.10;49.70;;;;;;4770016;29;19926;-83
2021/04/12 04:16:32;;;;;;;;;;;17.10;49.70;;;;;;4756035;29;20701;-83
2021/04/12 04:19:03;;;;;;;;;;;17.10;49.80;;;;;;4762580;30;21590;-83
2021/04/12 04:21:32;;;;;;;;;;;17.10;49.80;;;;;;4766715;29;19972;-83
2021/04/12 04:24:17;;;;;;;;;;;17.00;49.80;;;;;;4778445;29;19922;-83
2021/04/12 04:27:02;;;;;;;;;;;17.10;49.80;;;;;;4772674;29;19933;-83
2021/04/12 04:29:33;;;;;;;;;;;17.00;49.80;;;;;;4801271;29;20698;-83
2021/04/12 04:32:17;;;;;;;;;;;17.00;49.80;;;;;;4784984;29;19925;-83
2021/04/12 04:35:03;;;;;;;;;;;17.00;49.80;;;;;;4758661;29;20311;-84
2021/04/12 04:37:35;;;;;;;;;;;17.00;49.80;;;;;;4774909;29;19961;-82
2021/04/12 04:40:24;;;;;;;;;;;17.00;49.90;;;;;;4770296;29;20326;-84
2021/04/12 04:43:04;;;;;;;;;;;17.00;49.90;;;;;;4769181;29;20418;-83
2021/04/12 04:46:03;;;;;;;;;;;17.00;50.00;;;;;;4776879;29;21760;-83
2021/04/12 04:48:30;;;;;;;;;;;17.00;50.00;;;;;;4739099;29;20560;-84
2021/04/12 04:51:06;;;;;;;;;;;17.00;50.10;;;;;;4772713;29;19935;-85
2021/04/12 04:53:41;;;;;;;;;;;16.90;50.10;;;;;;4767435;30;20261;-85
2021/04/12 04:56:20;;;;;;;;;;;16.90;50.10;;;;;;4779364;29;20515;-85
2021/04/12 04:58:46;;;;;;;;;;;16.90;50.10;;;;;;4767854;29;19926;-84
2021/04/12 05:01:18;;;;;;;;;;;16.90;50.20;;;;;;4768935;30;19926;-84
2021/04/12 05:03:55;;;;;;;;;;;16.90;50.30;;;;;;4760968;29;19953;-86
2021/04/12 05:06:30;;;;;;;;;;;16.90;50.90;;;;;;4783694;29;19925;-83
2021/04/12 05:09:02;;;;;;;;;;;16.90;51.40;;;;;;4753757;29;20412;-85
2021/04/12 05:11:31;;;;;;;;;;;17.00;51.10;;;;;;4761530;29;19926;-84
2021/04/12 05:14:09;;;;;;;;;;;17.00;51.00;;;;;;4767705;29;20387;-83
2021/04/12 05:16:55;;;;;;;;;;;17.00;51.20;;;;;;4776436;29;19976;-84
2021/04/12 05:19:33;;;;;;;;;;;17.10;51.10;;;;;;4715684;30;19930;-87
2021/04/12 05:22:05;;;;;;;;;;;17.20;51.00;;;;;;4771325;29;19933;-85
2021/04/12 05:24:42;;;;;;;;;;;17.20;50.60;;;;;;4765233;30;22237;-84
2021/04/12 05:27:26;;;;;;;;;;;17.20;50.40;;;;;;4768035;29;21086;-82
2021/04/12 05:30:11;;;;;;;;;;;17.10;50.20;;;;;;4755367;29;19929;-83
2021/04/12 05:32:42;;;;;;;;;;;17.10;50.10;;;;;;4763657;29;19926;-83
2021/04/12 05:35:28;;;;;;;;;;;17.20;50.00;;;;;;4762510;29;19933;-87
2021/04/12 05:37:57;;;;;;;;;;;17.20;49.90;;;;;;4868690;24;19933;-82
2021/04/12 05:40:42;;;;;;;;;;;17.20;50.50;;;;;;4751434;29;19926;-79
2021/04/12 05:43:27;;;;;;;;;;;17.70;49.50;;;;;;4753812;29;19936;-85
2021/04/12 05:46:29;;;;;;;;;;;18.30;49.10;;;;;;4752515;29;20001;-86
2021/04/12 05:48:55;;;;;;;;;;;18.80;47.70;;;;;;4737760;29;19933;-80
2021/04/12 05:51:31;;;;;;;;;;;19.30;46.50;;;;;;4748582;30;19933;-82
2021/04/12 05:54:06;;;;;;;;;;;19.70;45.70;;;;;;4746757;30;19933;-85
2021/04/12 05:56:58;;;;;;;;;;;19.90;45.20;;;;;;4746616;30;19930;-85
2021/04/12 05:59:43;;;;;;;;;;;20.10;44.70;;;;;;4734198;30;20076;-82
2021/04/12 06:02:18;;;;;;;;;;;20.40;44.30;;;;;;4744024;30;19953;-80
2021/04/12 06:04:44;;;;;;;;;;;20.50;44.10;;;;;;4741794;30;20483;-85
2021/04/12 06:07:16;;;;;;;;;;;20.70;45.40;;;;;;4744660;30;19949;-81
2021/04/12 06:10:04;;;;;;;;;;;20.90;45.00;;;;;;4744372;30;20276;-85
2021/04/12 06:12:53;;;;;;;;;;;21.20;44.90;;;;;;4741206;30;20861;-87
2021/04/12 06:15:38;;;;;;;;;;;21.40;44.80;;;;;;4760130;30;19952;-87
2021/04/12 06:18:21;;;;;;;;;;;21.60;44.80;;;;;;4789775;29;19929;-91
2021/04/12 06:21:02;;;;;;;;;;;21.80;44.90;;;;;;4858621;24;19931;-85
2021/04/12 06:24:07;;;;;;;;;;;21.90;44.30;;;;;;4797031;29;19921;-87
2021/04/12 06:26:59;;;;;;;;;;;22.10;44.20;;;;;;4786732;29;19978;-85
2021/04/12 06:29:49;;;;;;;;;;;22.10;43.70;;;;;;4766455;29;22189;-86
2021/04/12 06:32:34;;;;;;;;;;;22.00;43.80;;;;;;4781936;29;20376;-82
2021/04/12 06:35:05;;;;;;;;;;;22.10;44.70;;;;;;4767581;29;20427;-83
2021/04/12 06:37:50;;;;;;;;;;;22.40;44.50;;;;;;4779584;29;20379;-82
2021/04/12 06:40:35;;;;;;;;;;;22.60;44.20;;;;;;4773756;29;21322;-81
2021/04/12 06:43:19;;;;;;;;;;;22.60;43.40;;;;;;4787044;29;20391;-89
2021/04/12 06:45:48;;;;;;;;;;;22.50;44.40;;;;;;4783670;29;21715;-89
2021/04/12 06:48:30;;;;;;;;;;;21.80;44.10;;;;;;4788566;29;20281;-90
2021/04/12 06:51:06;;;;;;;;;;;22.10;44.60;;;;;;4755330;29;20659;-86
2021/04/12 06:53:32;;;;;;;;;;;22.60;44.00;;;;;;4756377;29;19933;-87
2021/04/12 06:55:58;;;;;;;;;;;23.00;43.50;;;;;;4764307;29;20805;-86
2021/04/12 06:58:24;;;;;;;;;;;23.10;43.20;;;;;;4778524;29;19925;-91
2021/04/12 07:01:01;;;;;;;;;;;23.30;43.00;;;;;;4751136;29;19967;-86
2021/04/12 07:03:51;;;;;;;;;;;23.40;43.00;;;;;;4765145;29;19933;-88
2021/04/12 07:06:36;;;;;;;;;;;23.60;42.60;;;;;;4748884;29;19936;-91
2021/04/12 07:09:08;;;;;;;;;;;23.70;42.70;;;;;;4788246;29;20990;-90
2021/04/12 07:12:13;;;;;;;;;;;23.90;42.30;;;;;;4794145;29;20605;-91
2021/04/12 07:14:56;;;;;;;;;;;24.00;42.30;;;;;;4732819;30;19926;-88
2021/04/12 07:17:40;;;;;;;;;;;24.00;42.30;;;;;;4747181;30;20048;-84
2021/04/12 07:20:25;;;;;;;;;;;24.10;42.40;;;;;;4776299;29;20424;-88
2021/04/12 07:22:57;;;;;;;;;;;24.30;42.20;;;;;;4751909;29;19933;-86
2021/04/12 07:25:35;;;;;;;;;;;24.30;41.70;;;;;;4772208;29;19933;-84
2021/04/12 07:28:20;;;;;;;;;;;24.50;41.60;;;;;;4780728;29;20680;-86
2021/04/12 07:30:59;;;;;;;;;;;24.60;41.40;;;;;;4773178;29;20578;-90
2021/04/12 07:33:37;;;;;;;;;;;24.70;41.50;;;;;;4785626;29;19929;-89
2021/04/12 07:36:18;;;;;;;;;;;24.80;41.80;;;;;;4784367;29;20231;-87
2021/04/12 07:38:53;;;;;;;;;;;25.00;41.30;;;;;;4775474;29;19969;-86
2021/04/12 07:41:20;;;;;;;;;;;25.10;41.60;;;;;;4772876;29;20391;-87
2021/04/12 07:44:12;;;;;;;;;;;25.10;40.80;;;;;;4766621;29;19925;-88
2021/04/12 07:46:52;;;;;;;;;;;25.20;40.70;;;;;;4761879;29;21246;-86
2021/04/12 07:49:37;;;;;;;;;;;25.40;40.30;;;;;;4761870;29;19953;-86
2021/04/12 07:52:22;;;;;;;;;;;25.40;40.10;;;;;;4775621;29;19926;-87
2021/04/12 07:55:00;;;;;;;;;;;25.40;40.10;;;;;;4765188;30;19929;-87
2021/04/12 07:57:45;;;;;;;;;;;25.50;39.90;;;;;;4764145;29;20098;-89
2021/04/12 08:00:31;;;;;;;;;;;25.60;39.80;;;;;;4764755;29;20353;-87
2021/04/12 08:03:03;;;;;;;;;;;25.70;39.80;;;;;;4755788;29;20693;-86
2021/04/12 08:05:35;;;;;;;;;;;25.80;39.50;;;;;;4784644;29;19934;-86
2021/04/12 08:08:14;;;;;;;;;;;25.70;39.50;;;;;;4771380;29;20185;-92
2021/04/12 08:10:59;;;;;;;;;;;25.90;39.70;;;;;;4758879;29;19932;-92
2021/04/12 08:13:31;;;;;;;;;;;25.90;39.60;;;;;;4742835;29;20383;-85
2021/04/12 08:15:57;;;;;;;;;;;26.00;39.30;;;;;;4784467;29;19932;-87
2021/04/12 08:18:29;;;;;;;;;;;26.00;39.40;;;;;;4763699;29;20315;-87
2021/04/12 08:21:14;;;;;;;;;;;26.10;39.30;;;;;;4766433;29;19932;-87
2021/04/12 08:23:40;;;;;;;;;;;26.20;39.20;;;;;;4796672;29;20325;-84
2021/04/12 08:26:19;;;;;;;;;;;26.30;38.90;;;;;;4792925;29;19929;-84
2021/04/12 08:28:55;;;;;;;;;;;26.30;38.80;;;;;;4790899;29;20019;-90
2021/04/12 08:31:31;;;;;;;;;;;26.30;39.00;;;;;;4770685;29;19959;-89
2021/04/12 08:34:01;;;;;;;;;;;26.30;39.30;;;;;;4775464;29;20028;-93
2021/04/12 08:36:46;;;;;;;;;;;26.40;39.40;;;;;;4773854;30;20630;-86
2021/04/12 08:39:12;;;;;;;;;;;26.40;39.20;;;;;;4763375;29;20313;-88
2021/04/12 08:41:48;;;;;;;;;;;26.60;39.00;;;;;;4769286;29;19933;-90
2021/04/12 08:44:14;;;;;;;;;;;26.60;38.90;;;;;;4764330;29;20346;-86
2021/04/12 08:46:59;;;;;;;;;;;26.60;38.50;;;;;;4779646;29;19940;-83
2021/04/12 08:49:43;;;;;;;;;;;26.70;38.50;;;;;;4788228;29;19965;-82
2021/04/12 08:52:15;;;;;;;;;;;26.70;38.50;;;;;;4770216;29;20336;-83
2021/04/12 08:55:00;;;;;;;;;;;26.80;38.40;;;;;;4782513;29;19937;-86
2021/04/12 08:57:45;;;;;;;;;;;26.90;38.30;;;;;;4767065;29;19929;-88
2021/04/12 09:00:28;;;;;;;;;;;26.90;38.30;;;;;;4739199;29;20684;-85
2021/04/12 09:03:05;;;;;;;;;;;26.90;38.50;;;;;;4768758;29;19925;-94
2021/04/12 09:05:52;;;;;;;;;;;26.80;38.00;;;;;;4785603;29;19933;-84
2021/04/12 09:08:37;;;;;;;;;;;26.70;38.40;;;;;;4770689;29;19942;-86
2021/04/12 09:11:08;;;;;;;;;;;26.70;38.40;;;;;;4782520;29;19926;-85
2021/04/12 09:13:46;;;;;;;;;;;26.80;38.60;;;;;;4778348;29;19929;-85
2021/04/12 09:16:19;;;;;;;;;;;26.90;38.40;;;;;;4778124;29;19946;-84
2021/04/12 09:19:04;;;;;;;;;;;27.00;38.70;;;;;;4775584;29;19978;-84
2021/04/12 09:21:49;;;;;;;;;;;27.10;38.10;;;;;;4782774;29;19940;-87
2021/04/12 09:24:34;;;;;;;;;;;27.10;38.30;;;;;;4769427;29;21171;-82
2021/04/12 09:27:03;;;;;;;;;;;27.20;38.20;;;;;;4781007;29;20008;-79
2021/04/12 09:29:48;;;;;;;;;;;26.80;35.50;;;;;;4783469;29;20024;-80
2021/04/12 09:32:23;;;;;;;;;;;24.70;36.30;;;;;;4754683;29;20703;-80
2021/04/12 09:35:08;;;;;;;;;;;23.80;38.70;;;;;;4783239;29;20527;-79
2021/04/12 09:38:13;;;;;;;;;;;23.40;39.50;;;;;;4767636;29;19944;-80
2021/04/12 09:40:50;;;;;;;;;;;23.10;40.10;;;;;;4689725;30;20335;-79
2021/04/12 09:43:35;;;;;;;;;;;22.80;40.60;;;;;;4717333;30;20235;-80
2021/04/12 09:46:17;;;;;;;;;;;22.60;40.90;;;;;;4756066;29;21418;-78
2021/04/12 09:49:16;;;;;;;;;;;22.50;41.20;;;;;;4781585;29;20586;-77
2021/04/12 09:52:01;;;;;;;;;;;22.40;41.50;;;;;;4777068;29;22641;-78
2021/04/12 09:54:46;;;;;;;;;;;22.20;41.40;;;;;;4768999;29;20402;-78
2021/04/12 09:57:21;;;;;;;;;;;22.20;41.70;;;;;;4783087;29;21954;-78
2021/04/12 09:59:56;;;;;;;;;;;22.00;41.80;;;;;;4781147;29;19936;-76
2021/04/12 10:02:41;;;;;;;;;;;21.90;42.00;;;;;;4782988;29;19957;-79
2021/04/12 10:05:13;;;;;;;;;;;21.80;42.20;;;;;;4779526;29;20320;-78
2021/04/12 10:07:58;;;;;;;;;;;21.70;42.40;;;;;;4782055;29;19982;-79
2021/04/12 10:10:41;;;;;;;;;;;21.60;42.50;;;;;;4777367;29;20308;-78
2021/04/12 10:13:26;;;;;;;;;;;21.60;42.60;;;;;;4776832;29;21797;-78
2021/04/12 10:16:03;;;;;;;;;;;21.50;42.70;;;;;;4775279;29;19925;-78
2021/04/12 10:18:48;;;;;;;;;;;21.40;42.80;;;;;;4783142;29;19925;-78
2021/04/12 10:21:14;;;;;;;;;;;21.30;42.80;;;;;;4780478;29;19938;-79
2021/04/12 10:23:42;;;;;;;;;;;21.30;43.00;;;;;;4780859;29;19940;-79
2021/04/12 10:26:13;;;;;;;;;;;21.20;43.10;;;;;;4782935;29;20319;-86
2021/04/12 10:31:25;;;;;;;;;;;21.60;44.40;;;;;;4782584;29;19925;-85
2021/04/12 10:34:13;;;;;;;;;;;21.70;43.90;;;;;;4760314;29;20280;-85
2021/04/12 10:37:12;;;;;;;;;;;21.90;44.20;;;;;;4765144;29;19932;-82
2021/04/12 10:39:40;;;;;;;;;;;22.00;44.40;;;;;;4757505;29;21020;-82
2021/04/12 10:42:20;;;;;;;;;;;22.00;44.30;;;;;;4782066;29;20391;-83
2021/04/12 10:44:57;;;;;;;;;;;22.00;44.10;;;;;;4768378;29;21463;-84
2021/04/12 10:47:31;;;;;;;;;;;22.00;44.20;;;;;;4781588;29;19925;-83
2021/04/12 10:50:07;;;;;;;;;;;22.10;44.30;;;;;;4780719;29;20045;-83
2021/04/12 10:52:36;;;;;;;;;;;22.10;44.00;;;;;;4774867;29;20295;-83
2021/04/12 10:55:06;;;;;;;;;;;22.00;43.50;;;;;;4770844;29;19934;-85
2021/04/12 10:57:41;;;;;;;;;;;22.00;43.80;;;;;;4755198;30;19933;-80
2021/04/12 11:00:23;;;;;;;;;;;22.10;43.90;;;;;;4754661;30;19930;-81
2021/04/12 11:03:08;;;;;;;;;;;22.10;44.10;;;;;;4753733;29;19929;-79
2021/04/12 11:05:35;;;;;;;;;;;22.10;44.30;;;;;;4766133;30;19940;-84
2021/04/12 11:08:14;;;;;;;;;;;22.10;44.30;;;;;;4760768;30;20107;-80
2021/04/12 11:10:56;;;;;;;;;;;22.10;44.00;;;;;;4758679;30;19925;-78
2021/04/12 11:13:25;;;;;;;;;;;22.10;44.40;;;;;;4761146;30;19941;-81
2021/04/12 11:16:05;;;;;;;;;;;22.10;44.30;;;;;;4757001;30;20399;-82
2021/04/12 11:18:37;;;;;;;;;;;22.10;44.00;;;;;;4761188;29;20038;-84
2021/04/12 11:21:20;;;;;;;;;;;22.10;44.30;;;;;;4755321;29;19990;-84
2021/04/12 11:24:18;;;;;;;;;;;22.10;44.10;;;;;;4761503;30;20920;-82
2021/04/12 11:27:17;;;;;;;;;;;22.20;44.10;;;;;;4734080;29;21214;-85
2021/04/12 11:29:45;;;;;;;;;;;22.20;44.40;;;;;;4762993;30;19970;-86
2021/04/12 11:32:30;;;;;;;;;;;22.20;44.60;;;;;;4762070;29;19929;-86
2021/04/12 11:35:02;;;;;;;;;;;22.20;44.60;;;;;;4761598;29;20360;-84
2021/04/12 11:37:31;;;;;;;;;;;22.30;44.70;;;;;;4761369;30;19999;-83
2021/04/12 11:39:59;;;;;;;;;;;22.30;44.40;;;;;;4756165;30;19932;-88
2021/04/12 11:42:30;;;;;;;;;;;22.30;44.50;;;;;;4757615;29;20028;-80
2021/04/12 11:45:02;;;;;;;;;;;22.30;44.40;;;;;;4761417;30;20053;-79
2021/04/12 11:47:53;;;;;;;;;;;22.30;44.80;;;;;;4763626;30;19934;-79
2021/04/12 11:50:43;;;;;;;;;;;22.40;44.50;;;;;;4747874;30;21585;-80
2021/04/12 11:55:40;;;;;;;;;;;22.40;44.40;;;;;;4839670;24;19941;-83
2021/04/12 11:58:11;;;;;;;;;;;22.40;44.70;;;;;;4790511;29;19913;-84
2021/04/12 12:00:57;;;;;;;;;;;22.40;45.10;;;;;;4742692;29;20004;-81
2021/04/12 12:03:43;;;;;;;;;;;22.40;45.00;;;;;;4741904;30;19925;-82
2021/04/12 12:06:15;;;;;;;;;;;22.20;42.10;;;;;;4768455;29;19936;-80
2021/04/12 12:08:48;;;;;;;;;;;21.80;42.20;;;;;;4761484;29;20641;-84
2021/04/12 12:11:37;;;;;;;;;;;21.90;44.60;;;;;;4752535;29;19948;-81
2021/04/12 12:14:06;;;;;;;;;;;22.10;45.80;;;;;;4754045;29;20078;-84
2021/04/12 12:16:34;;;;;;;;;;;22.20;45.90;;;;;;4756291;29;19934;-83
2021/04/12 12:19:31;;;;;;;;;;;22.30;45.30;;;;;;5028115;28;19928;-81
2021/04/12 12:22:20;;;;;;;;;;;22.40;46.10;;;;;;5021417;28;19925;-82
2021/04/12 12:25:03;;;;;;;;;;;22.40;46.10;;;;;;5013037;28;20164;-82
2021/04/12 12:27:50;;;;;;;;;;;22.40;45.80;;;;;;5022533;28;19931;-81
2021/04/12 12:30:40;;;;;;;;;;;22.40;45.80;;;;;;5011410;28;19948;-83
2021/04/12 12:33:11;;;;;;;;;;;22.50;45.60;;;;;;5015111;28;20238;-81
2021/04/12 12:35:49;;;;;;;;;;;22.50;46.10;;;;;;5021463;28;19951;-84
2021/04/12 12:38:23;;;;;;;;;;;22.50;46.10;;;;;;5011544;28;19972;-83
2021/04/12 12:40:54;;;;;;;;;;;22.50;46.00;;;;;;5015012;28;19929;-81
2021/04/12 12:43:27;;;;;;;;;;;22.50;45.90;;;;;;5015232;28;19948;-80
2021/04/12 12:45:54;;;;;;;;;;;22.60;46.00;;;;;;5012562;28;19925;-81
2021/04/12 12:48:27;;;;;;;;;;;22.50;45.40;;;;;;5008633;28;19925;-82
2021/04/12 12:51:08;;;;;;;;;;;22.50;45.00;;;;;;5024029;28;21306;-87
2021/04/12 12:53:37;;;;;;;;;;;22.60;45.60;;;;;;5016388;28;21366;-80
2021/04/12 12:56:05;;;;;;;;;;;22.50;45.40;;;;;;5012888;28;19925;-82
2021/04/12 12:58:31;;;;;;;;;;;22.60;45.70;;;;;;5012118;28;20561;-88
2021/04/12 13:00:59;;;;;;;;;;;22.60;45.40;;;;;;5019136;28;19925;-81
2021/04/12 13:03:35;;;;;;;;;;;22.60;45.60;;;;;;5034323;28;19929;-84
2021/04/12 13:06:19;;;;;;;;;;;22.60;45.50;;;;;;5041803;28;19936;-84
2021/04/12 13:08:50;;;;;;;;;;;22.70;45.40;;;;;;5039049;28;19925;-84
2021/04/12 13:11:30;;;;;;;;;;;22.70;45.90;;;;;;5031539;28;20395;-84
2021/04/12 13:14:08;;;;;;;;;;;22.70;45.60;;;;;;5043442;28;19932;-81
2021/04/12 13:16:46;;;;;;;;;;;22.70;45.00;;;;;;5030864;28;19933;-87
2021/04/12 13:19:13;;;;;;;;;;;22.70;45.50;;;;;;5039939;28;19972;-83
2021/04/12 13:21:59;;;;;;;;;;;22.70;45.30;;;;;;5040097;28;19925;-84
2021/04/12 13:24:33;;;;;;;;;;;22.70;45.10;;;;;;5033620;28;20456;-84
2021/04/12 13:27:19;;;;;;;;;;;22.70;45.10;;;;;;5032984;28;19925;-85
2021/04/12 13:29:55;;;;;;;;;;;22.70;45.00;;;;;;5015596;28;19925;-84
2021/04/12 13:32:24;;;;;;;;;;;22.70;44.70;;;;;;5025440;28;20427;-88
2021/04/12 13:34:53;;;;;;;;;;;22.70;44.70;;;;;;5025094;28;19932;-85
2021/04/12 13:37:23;;;;;;;;;;;22.70;44.70;;;;;;5021624;28;19940;-86
2021/04/12 13:40:07;;;;;;;;;;;22.70;44.70;;;;;;5006155;28;19937;-85
2021/04/12 13:42:52;;;;;;;;;;;22.70;44.50;;;;;;5017017;28;20023;-85
2021/04/12 13:45:37;;;;;;;;;;;22.70;44.70;;;;;;4986209;28;19925;-82
2021/04/12 13:48:29;;;;;;;;;;;22.70;44.80;;;;;;4998239;28;19933;-84
2021/04/12 13:50:58;;;;;;;;;;;22.70;45.30;;;;;;4982444;28;20808;-85
2021/04/12 13:53:30;;;;;;;;;;;22.70;45.30;;;;;;5009232;28;19933;-83
2021/04/12 13:56:13;;;;;;;;;;;22.60;43.00;;;;;;5000358;28;19926;-81
2021/04/12 13:58:48;;;;;;;;;;;22.00;42.60;;;;;;5004877;28;19933;-83
2021/04/12 14:01:20;;;;;;;;;;;21.80;43.50;;;;;;5001644;28;20147;-87
2021/04/12 14:04:08;;;;;;;;;;;22.70;43.30;;;;;;4999149;28;19940;-80
2021/04/12 14:06:44;;;;;;;;;;;23.70;42.20;;;;;;4994435;28;20306;-83
2021/04/12 14:09:19;;;;;;;;;;;24.30;41.30;;;;;;4976899;28;20421;-82
2021/04/12 14:11:51;;;;;;;;;;;24.70;41.00;;;;;;4996637;28;19933;-83
2021/04/12 14:14:21;;;;;;;;;;;24.90;40.60;;;;;;4994217;28;19938;-83
2021/04/12 14:17:09;;;;;;;;;;;25.10;40.40;;;;;;4997960;28;20647;-84
2021/04/12 14:19:46;;;;;;;;;;;25.30;40.20;;;;;;4991174;28;20175;-85
2021/04/12 14:22:17;;;;;;;;;;;25.40;40.10;;;;;;5016019;28;20336;-85
2021/04/12 14:24:46;;;;;;;;;;;25.60;40.30;;;;;;5018649;28;19929;-84
2021/04/12 14:27:17;;;;;;;;;;;25.60;40.30;;;;;;5019761;28;19925;-81
2021/04/12 14:29:43;;;;;;;;;;;25.70;40.20;;;;;;5017194;28;20020;-83
2021/04/12 14:32:13;;;;;;;;;;;25.80;40.20;;;;;;5021766;28;19941;-84
2021/04/12 14:34:44;;;;;;;;;;;25.90;40.00;;;;;;5010805;28;21457;-88
2021/04/12 14:37:11;;;;;;;;;;;26.00;39.70;;;;;;5022714;28;19937;-83
2021/04/12 14:39:38;;;;;;;;;;;26.10;39.90;;;;;;5019497;28;19925;-80
2021/04/12 14:42:10;;;;;;;;;;;26.20;39.70;;;;;;5021132;28;20396;-80
2021/04/12 14:44:42;;;;;;;;;;;26.20;40.30;;;;;;5013949;28;19940;-80
2021/04/12 14:47:25;;;;;;;;;;;26.40;40.00;;;;;;5022749;28;20690;-84
2021/04/12 14:50:02;;;;;;;;;;;26.50;39.60;;;;;;5016477;28;19925;-84
2021/04/12 14:52:34;;;;;;;;;;;26.60;39.70;;;;;;5016498;28;19932;-86
2021/04/12 14:55:02;;;;;;;;;;;26.60;39.60;;;;;;5014009;28;20382;-84
2021/04/12 14:57:32;;;;;;;;;;;26.70;39.50;;;;;;5019044;28;19932;-87
2021/04/12 15:00:28;;;;;;;;;;;26.80;39.30;;;;;;5019147;28;19932;-86
2021/04/12 15:02:57;;;;;;;;;;;26.80;39.20;;;;;;4985174;28;20913;-91
2021/04/12 15:05:36;;;;;;;;;;;26.90;39.20;;;;;;5000748;28;19929;-85
2021/04/12 15:08:08;;;;;;;;;;;26.90;39.00;;;;;;5021755;28;19936;-85
2021/04/12 15:10:36;;;;;;;;;;;27.10;38.80;;;;;;5017733;28;19929;-85
2021/04/12 15:13:09;;;;;;;;;;;27.10;38.80;;;;;;5025519;28;20060;-83
2021/04/12 15:15:38;;;;;;;;;;;27.30;38.70;;;;;;5021605;28;19925;-83
2021/04/12 15:18:10;;;;;;;;;;;27.40;38.50;;;;;;5024490;28;19925;-82
2021/04/12 15:20:47;;;;;;;;;;;27.50;38.20;;;;;;5022567;28;19933;-88
2021/04/12 15:25:47;;;;;;;;;;;25.70;38.60;;;;;;5063699;22;19975;-83